createdAt,value
2023-02-05T00:01:44.681Z,7.70
2023-02-05T00:04:11.569Z,6.88
2023-02-05T00:06:38.455Z,7.70
2023-02-05T00:09:05.302Z,7.50
2023-02-05T00:11:32.154Z,7.93
2023-02-05T00:13:59.003Z,8.07
2023-02-05T00:16:26.342Z,7.63
2023-02-05T00:18:53.729Z,7.65
2023-02-05T00:21:23.146Z,7.25
2023-02-05T00:23:50.047Z,8.10
2023-02-05T00:26:17.028Z,7.53
2023-02-05T00:28:44.909Z,7.10
2023-02-05T00:31:20.173Z,7.60
2023-02-05T00:33:48.603Z,7.32
2023-02-05T00:36:16.402Z,6.90
2023-02-05T00:38:45.237Z,6.93
2023-02-05T00:41:13.370Z,6.78
2023-02-05T00:43:41.223Z,6.95
2023-02-05T00:46:10.489Z,6.85
2023-02-05T00:48:38.394Z,6.68
2023-02-05T00:51:05.772Z,7.38
2023-02-05T00:53:33.077Z,7.20
2023-02-05T00:55:59.913Z,6.10
2023-02-05T00:58:27.161Z,6.30
2023-02-05T01:00:54.048Z,6.38
2023-02-05T01:03:21.071Z,5.57
2023-02-05T01:05:48.323Z,4.82
2023-02-05T01:08:15.404Z,4.55
2023-02-05T01:10:49.346Z,4.22
2023-02-05T01:13:18.326Z,4.55
2023-02-05T01:15:45.728Z,4.30
2023-02-05T01:18:13.403Z,5.18
2023-02-05T01:20:42.388Z,4.40
2023-02-05T01:23:10.736Z,4.90
2023-02-05T01:25:37.966Z,4.55
2023-02-05T01:28:06.756Z,4.78
2023-02-05T01:30:35.477Z,4.55
2023-02-05T01:33:03.751Z,4.00
2023-02-05T01:35:31.595Z,4.45
2023-02-05T01:37:58.585Z,3.67
2023-02-05T01:40:25.659Z,3.95
2023-02-05T01:42:52.506Z,4.15
2023-02-05T01:45:52.236Z,4.45
2023-02-05T01:48:27.381Z,4.10
2023-02-05T01:51:01.427Z,4.72
2023-02-05T01:53:34.880Z,4.47
2023-02-05T01:56:17.091Z,4.13
2023-02-05T01:59:01.665Z,4.05
2023-02-05T02:01:29.414Z,4.13
2023-02-05T02:04:00.531Z,4.22
2023-02-05T02:06:27.499Z,3.88
2023-02-05T02:08:54.354Z,4.10
2023-02-05T02:11:24.149Z,4.55
2023-02-05T02:13:54.673Z,4.03
2023-02-05T02:16:22.537Z,4.00
2023-02-05T02:18:50.002Z,3.53
2023-02-05T02:21:46.183Z,4.50
2023-02-05T02:24:34.092Z,3.55
2023-02-05T02:27:18.699Z,3.33
2023-02-05T02:30:18.885Z,3.63
2023-02-05T02:33:26.858Z,3.70
2023-02-05T02:36:12.380Z,3.85
2023-02-05T02:38:44.327Z,3.60
2023-02-05T02:41:24.520Z,3.78
2023-02-05T02:44:09.549Z,4.07
2023-02-05T02:46:46.768Z,3.70
2023-02-05T02:49:39.249Z,3.88
2023-02-05T02:52:11.696Z,3.75
2023-02-05T02:54:43.354Z,3.88
2023-02-05T02:57:13.003Z,4.38
2023-02-05T02:59:42.916Z,4.10
2023-02-05T03:02:12.879Z,4.00
2023-02-05T03:04:47.030Z,3.60
2023-02-05T03:07:39.421Z,4.28
2023-02-05T03:10:24.488Z,4.05
2023-02-05T03:12:51.463Z,3.78
2023-02-05T03:15:18.589Z,4.68
2023-02-05T03:17:45.601Z,3.85
2023-02-05T03:20:49.700Z,3.95
2023-02-05T03:23:16.845Z,4.13
2023-02-05T03:25:44.001Z,5.03
2023-02-05T03:28:12.829Z,7.00
2023-02-05T03:31:29.146Z,7.43
2023-02-05T03:34:20.508Z,6.93
2023-02-05T03:37:13.636Z,5.88
2023-02-05T03:39:46.120Z,5.93
2023-02-05T03:42:21.746Z,5.43
2023-02-05T03:45:08.406Z,5.57
2023-02-05T03:47:53.650Z,5.15
2023-02-05T03:50:36.542Z,5.18
2023-02-05T03:53:30.780Z,4.57
2023-02-05T03:56:16.286Z,5.63
2023-02-05T03:58:49.562Z,4.70
2023-02-05T04:01:18.395Z,5.30
2023-02-05T04:03:45.301Z,5.60
2023-02-05T04:06:13.130Z,5.60
2023-02-05T04:08:39.973Z,5.65
2023-02-05T04:11:07.697Z,5.47
2023-02-05T04:13:34.543Z,5.30
2023-02-05T04:16:01.519Z,4.72
2023-02-05T04:18:28.373Z,4.88
2023-02-05T04:20:55.220Z,4.60
2023-02-05T04:23:22.050Z,3.92
2023-02-05T04:25:54.327Z,4.10
2023-02-05T04:28:21.585Z,3.90
2023-02-05T04:30:48.530Z,3.83
2023-02-05T04:33:15.530Z,4.10
2023-02-05T04:35:42.447Z,3.55
2023-02-05T04:38:09.363Z,2.95
2023-02-05T04:40:36.315Z,3.40
2023-02-05T04:43:03.173Z,3.85
2023-02-05T04:45:31.302Z,3.80
2023-02-05T04:47:59.537Z,3.53
2023-02-05T04:50:27.485Z,2.88
2023-02-05T04:52:54.626Z,3.67
2023-02-05T04:55:21.797Z,3.45
2023-02-05T04:57:50.309Z,3.28
2023-02-05T05:00:18.473Z,2.70
2023-02-05T05:02:46.495Z,2.97
2023-02-05T05:05:13.391Z,3.08
2023-02-05T05:07:40.346Z,3.67
2023-02-05T05:10:08.544Z,2.90
2023-02-05T05:12:37.235Z,2.83
2023-02-05T05:15:08.271Z,2.63
2023-02-05T05:17:35.727Z,2.90
2023-02-05T05:20:03.716Z,2.88
2023-02-05T05:22:30.623Z,2.38
2023-02-05T05:24:57.412Z,2.47
2023-02-05T05:27:24.928Z,3.10
2023-02-05T05:29:51.833Z,2.90
2023-02-05T05:32:18.686Z,3.00
2023-02-05T05:34:45.626Z,2.97
2023-02-05T05:37:12.422Z,5.80
2023-02-05T05:39:57.513Z,4.93
2023-02-05T05:42:43.076Z,4.90
2023-02-05T05:45:10.661Z,3.13
2023-02-05T05:47:37.485Z,3.33
2023-02-05T05:50:04.773Z,3.50
2023-02-05T05:52:32.812Z,4.30
2023-02-05T05:54:59.799Z,3.50
2023-02-05T05:57:27.823Z,3.50
2023-02-05T05:59:54.658Z,2.78
2023-02-05T06:02:21.489Z,3.15
2023-02-05T06:04:48.358Z,2.95
2023-02-05T06:07:15.575Z,3.08
2023-02-05T06:09:42.401Z,2.95
2023-02-05T06:12:11.376Z,2.90
2023-02-05T06:14:38.625Z,3.28
2023-02-05T06:17:05.513Z,2.92
2023-02-05T06:19:32.306Z,3.78
2023-02-05T06:21:59.125Z,3.35
2023-02-05T06:24:26.260Z,3.25
2023-02-05T06:26:53.431Z,3.25
2023-02-05T06:29:20.239Z,2.85
2023-02-05T06:31:47.136Z,3.17
2023-02-05T06:34:14.079Z,2.40
2023-02-05T06:36:40.943Z,2.90
2023-02-05T06:39:07.792Z,3.08
2023-02-05T06:41:34.630Z,3.05
2023-02-05T06:44:01.558Z,2.75
2023-02-05T06:46:28.410Z,2.58
2023-02-05T06:48:55.370Z,2.70
2023-02-05T06:51:22.208Z,3.10
2023-02-05T06:53:49.075Z,2.80
2023-02-05T06:56:15.854Z,2.53
2023-02-05T06:58:42.662Z,2.95
2023-02-05T07:01:09.517Z,3.00
2023-02-05T07:03:36.510Z,2.63
2023-02-05T07:06:05.609Z,2.65
2023-02-05T07:08:33.001Z,3.08
2023-02-05T07:11:00.506Z,3.00
2023-02-05T07:13:29.615Z,2.85
2023-02-05T07:15:56.464Z,2.63
2023-02-05T07:18:24.404Z,3.28
2023-02-05T07:20:51.387Z,2.97
2023-02-05T07:23:18.178Z,2.92
2023-02-05T07:25:45.142Z,3.13
2023-02-05T07:28:12.249Z,2.92
2023-02-05T07:30:39.123Z,3.13
2023-02-05T07:33:06.423Z,3.33
2023-02-05T07:35:37.650Z,3.08
2023-02-05T07:38:04.821Z,3.17
2023-02-05T07:40:32.110Z,3.60
2023-02-05T07:42:59.162Z,3.55
2023-02-05T07:45:26.037Z,3.53
2023-02-05T07:47:53.934Z,4.47
2023-02-05T07:50:20.938Z,4.70
2023-02-05T07:52:47.840Z,5.20
2023-02-05T07:55:14.956Z,4.22
2023-02-05T07:57:41.793Z,4.10
2023-02-05T08:00:09.883Z,3.92
2023-02-05T08:02:36.926Z,4.15
2023-02-05T08:05:03.949Z,4.00
2023-02-05T08:07:30.799Z,3.30
2023-02-05T08:09:57.668Z,3.55
2023-02-05T08:12:24.584Z,3.78
2023-02-05T08:14:52.673Z,3.75
2023-02-05T08:17:22.432Z,3.30
2023-02-05T08:19:50.975Z,3.78
2023-02-05T08:22:17.771Z,4.00
2023-02-05T08:24:44.584Z,4.45
2023-02-05T08:27:11.454Z,7.13
2023-02-05T08:29:38.255Z,10.20
2023-02-05T08:32:05.220Z,6.20
2023-02-05T08:34:32.045Z,4.15
2023-02-05T08:37:01.472Z,4.25
2023-02-05T08:39:28.377Z,3.20
2023-02-05T08:41:57.032Z,3.55
2023-02-05T08:44:24.451Z,3.42
2023-02-05T08:46:51.292Z,3.13
2023-02-05T08:49:18.363Z,3.40
2023-02-05T08:51:45.238Z,2.58
2023-02-05T08:54:13.432Z,2.53
2023-02-05T08:56:42.765Z,2.63
2023-02-05T08:59:10.592Z,2.10
2023-02-05T09:01:40.932Z,2.60
2023-02-05T09:04:08.349Z,2.50
2023-02-05T09:06:35.317Z,2.75
2023-02-05T09:09:02.262Z,3.13
2023-02-05T09:11:30.499Z,2.65
2023-02-05T09:13:58.747Z,2.55
2023-02-05T09:16:26.730Z,2.45
2023-02-05T09:18:58.626Z,2.58
2023-02-05T09:21:26.466Z,2.17
2023-02-05T09:23:54.213Z,3.30
2023-02-05T09:26:21.821Z,2.72
2023-02-05T09:28:48.729Z,2.75
2023-02-05T09:31:19.696Z,2.50
2023-02-05T09:33:47.020Z,2.70
2023-02-05T09:36:20.936Z,2.35
2023-02-05T09:38:48.994Z,2.60
2023-02-05T09:41:29.667Z,2.47
2023-02-05T09:44:12.237Z,2.95
2023-02-05T09:46:53.912Z,2.47
2023-02-05T09:49:31.370Z,2.25
2023-02-05T09:52:19.815Z,2.30
2023-02-05T09:54:55.430Z,2.88
2023-02-05T09:57:35.266Z,2.55
2023-02-05T10:00:13.364Z,2.50
2023-02-05T10:02:55.533Z,2.70
2023-02-05T10:05:28.989Z,3.63
2023-02-05T10:08:27.697Z,3.97
2023-02-05T10:10:57.729Z,2.42
2023-02-05T10:13:32.786Z,2.47
2023-02-05T10:16:31.650Z,2.08
2023-02-05T10:19:39.361Z,2.17
2023-02-05T10:22:43.366Z,2.00
2023-02-05T10:25:50.120Z,1.50
2023-02-05T10:28:38.030Z,1.95
2023-02-05T10:31:38.593Z,2.53
2023-02-05T10:34:23.618Z,1.83
2023-02-05T10:36:53.878Z,1.65
2023-02-05T10:39:26.020Z,2.28
2023-02-05T10:42:13.389Z,1.80
2023-02-05T10:44:48.980Z,1.85
2023-02-05T10:47:48.628Z,1.80
2023-02-05T10:50:30.466Z,1.65
2023-02-05T10:52:57.341Z,1.58
2023-02-05T10:55:24.248Z,1.95
2023-02-05T10:57:51.141Z,1.80
2023-02-05T11:00:23.446Z,1.92
2023-02-05T11:02:58.992Z,2.35
2023-02-05T11:05:41.574Z,1.95
2023-02-05T11:08:37.228Z,2.72
2023-02-05T11:11:06.030Z,1.60
2023-02-05T11:13:39.718Z,1.85
2023-02-05T11:16:09.284Z,2.20
2023-02-05T11:18:41.264Z,1.77
2023-02-05T11:21:10.204Z,1.73
2023-02-05T11:23:40.179Z,2.30
2023-02-05T11:26:23.658Z,1.80
2023-02-05T11:28:50.756Z,1.70
2023-02-05T11:31:28.345Z,1.67
2023-02-05T11:34:21.706Z,1.83
2023-02-05T11:36:56.167Z,1.48
2023-02-05T11:39:41.270Z,2.25
2023-02-05T11:42:18.268Z,1.70
2023-02-05T11:44:56.988Z,2.00
2023-02-05T11:47:39.208Z,1.63
2023-02-05T11:50:21.402Z,2.33
2023-02-05T11:52:48.485Z,2.33
2023-02-05T11:55:32.974Z,2.42
2023-02-05T11:58:28.142Z,2.30
2023-02-05T12:01:06.999Z,2.20
2023-02-05T12:03:35.097Z,2.97
2023-02-05T12:06:17.491Z,3.20
2023-02-05T12:08:53.124Z,3.40
2023-02-05T12:12:00.986Z,3.38
2023-02-05T12:14:49.525Z,3.78
2023-02-05T12:17:33.548Z,2.50
2023-02-05T12:20:15.561Z,2.13
2023-02-05T12:23:03.775Z,2.30
2023-02-05T12:25:47.944Z,2.20
2023-02-05T12:28:27.051Z,1.70
2023-02-05T12:31:38.139Z,8.90
2023-02-05T12:37:26.373Z,2.22
2023-02-05T12:40:17.916Z,1.98
2023-02-05T12:42:56.498Z,1.90
2023-02-05T12:45:57.297Z,1.80
2023-02-05T12:48:42.122Z,1.70
2023-02-05T12:51:35.781Z,2.00
2023-02-05T12:54:26.887Z,2.15
2023-02-05T12:57:13.389Z,2.05
2023-02-05T12:59:49.935Z,1.85
2023-02-05T13:02:28.618Z,1.65
2023-02-05T13:05:36.310Z,2.15
2023-02-05T13:08:29.107Z,1.60
2023-02-05T13:11:42.738Z,3.63
2023-02-05T13:14:21.110Z,1.35
2023-02-05T13:16:55.784Z,1.95
2023-02-05T13:19:42.356Z,1.38
2023-02-05T13:22:41.415Z,2.10
2023-02-05T13:25:47.206Z,1.48
2023-02-05T13:28:40.334Z,2.03
2023-02-05T13:31:22.732Z,1.45
2023-02-05T13:33:52.234Z,2.72
2023-02-05T13:36:24.912Z,2.40
2023-02-05T13:39:24.278Z,2.75
2023-02-05T13:42:40.705Z,2.00
2023-02-05T13:45:52.669Z,2.72
2023-02-05T13:48:52.771Z,2.22
2023-02-05T13:51:45.857Z,3.37
2023-02-05T13:54:49.696Z,3.08
2023-02-05T13:57:50.206Z,2.33
2023-02-05T14:00:18.217Z,2.63
2023-02-05T14:02:49.415Z,2.50
2023-02-05T14:05:28.706Z,3.03
2023-02-05T14:07:58.483Z,3.97
2023-02-05T14:10:29.379Z,3.08
2023-02-05T14:13:24.791Z,3.78
2023-02-05T14:15:57.488Z,4.07
2023-02-05T14:18:43.335Z,6.18
2023-02-05T14:21:31.828Z,4.20
2023-02-05T14:24:39.101Z,3.28
2023-02-05T14:27:30.591Z,2.83
2023-02-05T14:30:29.965Z,3.92
2023-02-05T14:33:03.378Z,4.03
2023-02-05T14:35:40.073Z,4.75
2023-02-05T14:38:33.255Z,7.85
2023-02-05T14:41:18.782Z,5.72
2023-02-05T14:44:17.109Z,4.70
2023-02-05T14:46:54.847Z,4.53
2023-02-05T14:49:41.406Z,3.67
2023-02-05T14:52:31.228Z,2.60
2023-02-05T14:55:30.050Z,3.47
2023-02-05T14:58:04.165Z,3.45
2023-02-05T15:00:38.641Z,3.15
2023-02-05T15:03:05.513Z,3.50
2023-02-05T15:05:44.649Z,5.22
2023-02-05T15:08:42.675Z,3.75
2023-02-05T15:11:19.553Z,3.85
2023-02-05T15:14:20.926Z,3.85
2023-02-05T15:17:10.398Z,4.70
2023-02-05T15:19:56.449Z,4.10
2023-02-05T15:22:45.833Z,6.07
2023-02-05T15:25:25.921Z,5.78
2023-02-05T15:28:01.411Z,4.30
2023-02-05T15:30:48.136Z,4.53
2023-02-05T15:33:32.952Z,3.28
2023-02-05T15:36:17.878Z,3.85
2023-02-05T15:38:56.634Z,3.50
2023-02-05T15:41:25.531Z,4.22
2023-02-05T15:44:03.794Z,4.45
2023-02-05T15:46:33.470Z,3.20
2023-02-05T15:49:01.280Z,3.85
2023-02-05T15:51:34.486Z,4.85
2023-02-05T15:54:04.472Z,4.60
2023-02-05T15:56:44.478Z,4.40
2023-02-05T15:59:11.215Z,3.88
2023-02-05T16:01:50.171Z,5.05
2023-02-05T16:04:20.311Z,4.57
2023-02-05T16:06:47.388Z,4.63
2023-02-05T16:09:21.854Z,3.92
2023-02-05T16:11:49.235Z,4.25
2023-02-05T16:14:21.828Z,4.10
2023-02-05T16:17:01.304Z,4.50
2023-02-05T16:19:55.230Z,4.68
2023-02-05T16:22:38.308Z,4.70
2023-02-05T16:25:32.933Z,4.53
2023-02-05T16:28:05.483Z,4.95
2023-02-05T16:30:43.048Z,4.90
2023-02-05T16:33:32.170Z,5.07
2023-02-05T16:36:05.074Z,5.28
2023-02-05T16:38:32.593Z,5.90
2023-02-05T16:41:18.936Z,6.18
2023-02-05T16:43:45.931Z,5.82
2023-02-05T16:46:13.977Z,5.22
2023-02-05T16:48:46.987Z,5.65
2023-02-05T16:51:32.480Z,6.10
2023-02-05T16:54:10.354Z,5.85
2023-02-05T16:56:46.633Z,5.55
2023-02-05T17:00:01.648Z,4.95
2023-02-05T17:02:39.658Z,4.82
2023-02-05T17:05:22.955Z,5.70
2023-02-05T17:08:03.087Z,5.80
2023-02-05T17:10:30.544Z,5.82
2023-02-05T17:13:05.101Z,5.45
2023-02-05T17:15:40.433Z,5.90
2023-02-05T17:18:34.179Z,6.05
2023-02-05T17:21:21.941Z,5.65
2023-02-05T17:23:51.489Z,5.70
2023-02-05T17:26:19.624Z,6.63
2023-02-05T17:28:53.840Z,6.55
2023-02-05T17:31:26.380Z,6.78
2023-02-05T17:33:56.217Z,6.60
2023-02-05T17:36:24.075Z,6.70
2023-02-05T17:38:51.806Z,6.05
2023-02-05T17:41:53.311Z,6.88
2023-02-05T17:44:20.328Z,6.50
2023-02-05T17:46:47.205Z,6.25
2023-02-05T17:49:14.387Z,5.78
2023-02-05T17:51:42.692Z,5.85
2023-02-05T17:54:20.130Z,5.63
2023-02-05T17:56:48.419Z,5.45
2023-02-05T17:59:19.309Z,5.68
2023-02-05T18:01:47.867Z,6.57
2023-02-05T18:04:15.718Z,7.85
2023-02-05T18:06:43.128Z,8.55
2023-02-05T18:09:12.342Z,8.77
2023-02-05T18:11:40.584Z,8.32
2023-02-05T18:14:08.510Z,10.50
2023-02-05T18:16:36.392Z,7.95
2023-02-05T18:19:03.431Z,21.25
2023-02-05T18:21:30.365Z,13.43
2023-02-05T18:23:57.341Z,10.80
2023-02-05T18:26:27.062Z,11.07
2023-02-05T18:28:55.432Z,9.10
2023-02-05T18:31:22.488Z,8.05
2023-02-05T18:33:51.671Z,8.40
2023-02-05T18:36:18.684Z,7.05
2023-02-05T18:38:45.916Z,7.18
2023-02-05T18:41:18.032Z,6.35
2023-02-05T18:43:45.387Z,6.53
2023-02-05T18:46:16.179Z,7.40
2023-02-05T18:51:17.844Z,5.35
2023-02-05T18:53:46.098Z,6.28
2023-02-05T18:56:17.398Z,6.75
2023-02-05T18:58:51.472Z,7.13
2023-02-05T19:01:19.418Z,6.97
2023-02-05T19:03:47.037Z,7.57
2023-02-05T19:06:17.040Z,6.88
2023-02-05T19:08:44.311Z,5.18
2023-02-05T19:11:22.926Z,6.97
2023-02-05T19:14:05.321Z,6.80
2023-02-05T19:16:35.040Z,7.45
2023-02-05T19:19:03.399Z,8.25
2023-02-05T19:21:31.564Z,8.48
2023-02-05T19:24:07.185Z,8.70
2023-02-05T19:26:37.062Z,8.55
2023-02-05T19:29:12.832Z,8.60
2023-02-05T19:31:40.607Z,7.40
2023-02-05T19:34:07.872Z,7.45
2023-02-05T19:36:35.390Z,7.28
2023-02-05T19:39:06.032Z,7.75
2023-02-05T19:41:35.634Z,6.78
2023-02-05T19:44:05.976Z,8.15
2023-02-05T19:46:38.094Z,9.63
2023-02-05T19:49:11.720Z,10.90
2023-02-05T19:51:39.054Z,7.22
2023-02-05T19:54:06.771Z,8.15
2023-02-05T19:56:38.019Z,17.02
2023-02-05T19:59:09.007Z,24.75
2023-02-05T20:01:38.997Z,12.07
2023-02-05T20:04:17.034Z,10.00
2023-02-05T20:06:46.413Z,10.30
2023-02-05T20:09:14.656Z,11.90
2023-02-05T20:11:45.262Z,14.63
2023-02-05T20:14:12.888Z,8.90
2023-02-05T20:16:40.742Z,9.02
2023-02-05T20:19:10.621Z,8.95
2023-02-05T20:21:38.582Z,9.33
2023-02-05T20:24:07.488Z,9.45
2023-02-05T20:26:36.770Z,10.70
2023-02-05T20:29:23.764Z,8.63
2023-02-05T20:31:52.972Z,7.72
2023-02-05T20:34:25.764Z,7.82
2023-02-05T20:36:59.773Z,7.55
2023-02-05T20:39:29.395Z,7.88
2023-02-05T20:41:59.242Z,7.10
2023-02-05T20:44:32.142Z,7.57
2023-02-05T20:46:59.407Z,6.18
2023-02-05T20:49:26.368Z,6.28
2023-02-05T20:51:54.041Z,6.72
2023-02-05T20:54:22.585Z,6.78
2023-02-05T20:57:02.024Z,6.90
2023-02-05T20:59:34.592Z,6.32
2023-02-05T21:02:02.704Z,6.40
2023-02-05T21:04:30.081Z,6.13
2023-02-05T21:06:58.295Z,5.97
2023-02-05T21:09:25.178Z,5.75
2023-02-05T21:11:55.412Z,5.07
2023-02-05T21:14:23.214Z,5.43
2023-02-05T21:16:50.137Z,4.30
2023-02-05T21:19:18.312Z,4.55
2023-02-05T21:21:45.276Z,4.78
2023-02-05T21:24:14.847Z,4.60
2023-02-05T21:26:48.705Z,4.65
2023-02-05T21:29:19.633Z,4.07
2023-02-05T21:31:52.836Z,3.60
2023-02-05T21:34:25.473Z,3.67
2023-02-05T21:36:55.080Z,3.70
2023-02-05T21:39:23.075Z,3.70
2023-02-05T21:41:50.843Z,4.15
2023-02-05T21:44:17.909Z,4.20
2023-02-05T21:46:44.823Z,3.78
2023-02-05T21:49:12.188Z,3.88
2023-02-05T21:51:39.889Z,5.15
2023-02-05T21:54:06.974Z,4.50
2023-02-05T21:56:41.457Z,4.38
2023-02-05T21:59:10.931Z,4.45
2023-02-05T22:01:38.171Z,4.47
2023-02-05T22:04:12.194Z,4.70
2023-02-05T22:06:39.960Z,4.40
2023-02-05T22:09:12.144Z,4.30
2023-02-05T22:11:40.546Z,4.25
2023-02-05T22:14:09.246Z,4.63
2023-02-05T22:16:37.378Z,4.03
2023-02-05T22:19:05.868Z,4.38
2023-02-05T22:21:36.514Z,3.97
2023-02-05T22:24:06.309Z,4.28
2023-02-05T22:26:38.459Z,4.47
2023-02-05T22:29:08.396Z,4.07
2023-02-05T22:31:36.402Z,3.90
2023-02-05T22:34:04.436Z,4.60
2023-02-05T22:36:33.772Z,4.70
2023-02-05T22:39:01.445Z,5.13
2023-02-05T22:41:32.640Z,4.85
2023-02-05T22:44:01.446Z,4.68
2023-02-05T22:46:32.765Z,5.35
2023-02-05T22:49:02.710Z,5.07
2023-02-05T22:51:33.786Z,4.90
2023-02-05T22:54:01.192Z,4.93
2023-02-05T22:56:28.746Z,4.75
2023-02-05T22:58:56.876Z,4.78
2023-02-05T23:01:32.209Z,4.70
2023-02-05T23:04:00.818Z,4.68
2023-02-05T23:06:31.877Z,4.85
2023-02-05T23:09:03.593Z,4.75
2023-02-05T23:11:32.619Z,4.22
2023-02-05T23:14:01.894Z,4.72
2023-02-05T23:16:33.972Z,4.75
2023-02-05T23:19:05.866Z,5.00
2023-02-05T23:21:36.050Z,4.40
2023-02-05T23:24:04.037Z,4.90
2023-02-05T23:26:38.316Z,4.55
2023-02-05T23:29:06.405Z,4.68
2023-02-05T23:31:33.624Z,5.05
2023-02-05T23:34:00.683Z,4.18
2023-02-05T23:36:27.532Z,4.57
2023-02-05T23:38:54.696Z,4.65
2023-02-05T23:41:37.118Z,4.90
2023-02-05T23:44:12.844Z,4.20
2023-02-05T23:46:42.341Z,4.80
2023-02-05T23:49:09.577Z,4.70
2023-02-05T23:51:36.933Z,4.70
2023-02-05T23:54:04.929Z,4.55
2023-02-05T23:56:32.012Z,4.55
2023-02-05T23:58:59.842Z,3.92
